createdAt,value
2018-10-03T00:02:24.708Z,1.60
2018-10-03T00:04:52.953Z,1.70
2018-10-03T00:07:21.193Z,1.70
2018-10-03T00:09:49.444Z,1.63
2018-10-03T00:12:17.692Z,1.77
2018-10-03T00:17:36.365Z,1.57
2018-10-03T00:20:04.712Z,1.80
2018-10-03T00:22:32.985Z,1.90
2018-10-03T00:25:01.278Z,1.60
2018-10-03T00:27:29.533Z,1.80
2018-10-03T00:29:57.849Z,1.27
2018-10-03T00:32:26.129Z,1.40
2018-10-03T00:34:54.437Z,1.60
2018-10-03T00:37:22.720Z,1.73
2018-10-03T00:39:51.001Z,1.67
2018-10-03T00:42:19.237Z,1.90
2018-10-03T00:44:47.547Z,1.70
2018-10-03T00:47:15.813Z,1.70
2018-10-03T00:49:44.099Z,1.50
2018-10-03T00:52:12.389Z,1.80
2018-10-03T00:54:40.653Z,1.57
2018-10-03T00:57:08.966Z,1.90
2018-10-03T00:59:37.396Z,1.63
2018-10-03T01:02:05.729Z,1.80
2018-10-03T01:04:34.052Z,1.30
2018-10-03T01:07:03.223Z,1.60
2018-10-03T01:09:31.476Z,1.43
2018-10-03T01:11:59.782Z,1.87
2018-10-03T01:14:28.039Z,1.40
2018-10-03T01:16:56.361Z,2.27
2018-10-03T01:19:24.654Z,1.83
2018-10-03T01:21:52.924Z,1.47
2018-10-03T01:24:21.228Z,1.70
2018-10-03T01:26:49.483Z,1.40
2018-10-03T01:29:17.722Z,1.57
2018-10-03T01:31:46.017Z,1.63
2018-10-03T01:34:14.274Z,1.40
2018-10-03T01:36:42.553Z,1.80
2018-10-03T01:39:11.131Z,1.83
2018-10-03T01:41:40.069Z,1.70
2018-10-03T01:44:08.616Z,2.13
2018-10-03T01:46:36.865Z,2.13
2018-10-03T01:49:05.154Z,2.00
2018-10-03T01:51:33.417Z,1.27
2018-10-03T01:54:01.978Z,1.60
2018-10-03T01:56:30.500Z,1.50
2018-10-03T01:58:58.774Z,1.50
2018-10-03T02:01:27.129Z,1.83
2018-10-03T02:03:55.464Z,1.87
2018-10-03T02:06:23.721Z,1.50
2018-10-03T02:08:51.990Z,1.67
2018-10-03T02:11:20.333Z,1.50
2018-10-03T02:13:48.609Z,1.70
2018-10-03T02:16:16.877Z,1.77
2018-10-03T02:18:45.145Z,1.60
2018-10-03T02:21:13.477Z,1.47
2018-10-03T02:23:41.725Z,1.73
2018-10-03T02:26:09.977Z,1.40
2018-10-03T02:28:38.232Z,1.27
2018-10-03T02:31:06.723Z,1.37
2018-10-03T02:33:34.974Z,1.40
2018-10-03T02:36:03.249Z,1.50
2018-10-03T02:38:31.509Z,1.50
2018-10-03T02:40:59.773Z,1.40
2018-10-03T02:43:28.115Z,1.43
2018-10-03T02:45:56.345Z,1.47
2018-10-03T02:48:24.587Z,1.60
2018-10-03T02:50:52.882Z,1.77
2018-10-03T02:53:21.140Z,1.53
2018-10-03T02:55:49.437Z,1.50
2018-10-03T02:58:17.727Z,1.40
2018-10-03T03:00:46.028Z,1.37
2018-10-03T03:03:14.310Z,1.47
2018-10-03T03:05:42.628Z,1.40
2018-10-03T03:08:10.920Z,1.50
2018-10-03T03:10:39.167Z,1.73
2018-10-03T03:13:07.441Z,1.53
2018-10-03T03:15:35.781Z,2.00
2018-10-03T03:18:04.061Z,1.50
2018-10-03T03:20:32.324Z,1.53
2018-10-03T03:23:00.621Z,1.63
2018-10-03T03:25:28.908Z,1.37
2018-10-03T03:27:57.195Z,1.60
2018-10-03T03:30:25.461Z,1.60
2018-10-03T03:32:53.753Z,1.67
2018-10-03T03:35:22.065Z,1.70
2018-10-03T03:37:50.336Z,1.83
2018-10-03T03:40:18.625Z,1.90
2018-10-03T03:42:46.905Z,1.40
2018-10-03T03:45:15.201Z,1.30
2018-10-03T03:47:43.473Z,1.80
2018-10-03T03:50:11.735Z,1.57
2018-10-03T03:52:39.993Z,1.43
2018-10-03T03:55:08.277Z,1.37
2018-10-03T03:57:36.699Z,1.30
2018-10-03T04:00:04.997Z,1.30
2018-10-03T04:02:33.249Z,1.30
2018-10-03T04:05:01.515Z,2.07
2018-10-03T04:07:29.824Z,1.40
2018-10-03T04:09:58.149Z,1.57
2018-10-03T04:12:26.810Z,1.63
2018-10-03T04:14:55.080Z,1.27
2018-10-03T04:17:23.377Z,1.33
2018-10-03T04:19:51.637Z,1.20
2018-10-03T04:22:19.904Z,1.33
2018-10-03T04:24:48.818Z,1.33
2018-10-03T04:27:17.105Z,1.10
2018-10-03T04:29:45.380Z,1.40
2018-10-03T04:32:13.657Z,1.50
2018-10-03T04:34:41.982Z,1.43
2018-10-03T04:37:10.265Z,1.50
2018-10-03T04:39:38.540Z,1.40
2018-10-03T04:42:06.947Z,1.50
2018-10-03T04:44:35.224Z,1.20
2018-10-03T04:47:03.504Z,1.13
2018-10-03T04:49:31.756Z,1.77
2018-10-03T04:52:00.058Z,1.10
2018-10-03T04:54:28.364Z,1.20
2018-10-03T04:56:56.750Z,1.40
2018-10-03T04:59:25.005Z,1.53
2018-10-03T05:01:53.297Z,1.30
2018-10-03T05:04:21.557Z,2.10
2018-10-03T05:06:49.833Z,1.60
2018-10-03T05:09:18.081Z,1.20
2018-10-03T05:11:46.375Z,1.43
2018-10-03T05:14:14.662Z,1.63
2018-10-03T05:16:42.929Z,1.20
2018-10-03T05:19:11.245Z,1.27
2018-10-03T05:21:39.529Z,1.60
2018-10-03T05:24:08.121Z,1.50
2018-10-03T05:26:36.385Z,1.27
2018-10-03T05:29:04.641Z,1.30
2018-10-03T05:31:32.989Z,1.20
2018-10-03T05:34:01.271Z,1.20
2018-10-03T05:36:29.561Z,1.50
2018-10-03T05:38:57.935Z,1.43
2018-10-03T05:41:26.220Z,1.57
2018-10-03T05:43:55.585Z,1.50
2018-10-03T05:46:23.884Z,1.40
2018-10-03T05:48:52.148Z,1.20
2018-10-03T05:51:20.430Z,1.50
2018-10-03T05:53:48.957Z,1.20
2018-10-03T05:56:17.211Z,1.20
2018-10-03T05:58:45.500Z,1.43
2018-10-03T06:01:13.753Z,1.50
2018-10-03T06:03:42.178Z,1.47
2018-10-03T06:06:10.523Z,1.00
2018-10-03T06:08:39.536Z,1.77
2018-10-03T06:11:07.870Z,1.20
2018-10-03T06:13:36.453Z,1.40
2018-10-03T06:16:04.858Z,1.30
2018-10-03T06:18:33.287Z,1.87
2018-10-03T06:21:01.673Z,1.60
2018-10-03T06:23:29.990Z,1.70
2018-10-03T06:25:58.336Z,1.83
2018-10-03T06:28:26.590Z,1.60
2018-10-03T06:30:54.930Z,1.33
2018-10-03T06:33:23.210Z,1.73
2018-10-03T06:35:51.486Z,1.30
2018-10-03T06:38:19.757Z,0.90
2018-10-03T06:40:48.245Z,1.30
2018-10-03T06:43:16.534Z,1.13
2018-10-03T06:45:44.986Z,1.43
2018-10-03T06:48:13.415Z,1.20
2018-10-03T06:50:41.847Z,1.17
2018-10-03T06:53:10.440Z,1.47
2018-10-03T06:55:38.981Z,1.37
2018-10-03T06:58:07.462Z,1.23
2018-10-03T07:00:36.375Z,1.13
2018-10-03T07:03:04.697Z,1.10
2018-10-03T07:05:32.995Z,1.17
2018-10-03T07:08:01.326Z,1.07
2018-10-03T07:10:29.625Z,1.20
2018-10-03T07:12:57.979Z,1.73
2018-10-03T07:15:26.353Z,3.53
2018-10-03T07:17:54.617Z,1.40
2018-10-03T07:20:22.921Z,1.40
2018-10-03T07:22:51.332Z,1.20
2018-10-03T07:25:19.786Z,1.20
2018-10-03T07:27:48.165Z,1.17
2018-10-03T07:30:16.896Z,1.30
2018-10-03T07:32:45.303Z,1.30
2018-10-03T07:35:13.521Z,1.53
2018-10-03T07:37:41.953Z,1.60
2018-10-03T07:40:10.298Z,1.70
2018-10-03T07:42:38.618Z,1.80
2018-10-03T07:45:07.168Z,1.77
2018-10-03T07:47:35.417Z,1.90
2018-10-03T07:50:03.742Z,1.40
2018-10-03T07:52:32.032Z,1.37
2018-10-03T07:55:00.414Z,1.90
2018-10-03T07:57:28.685Z,1.43
2018-10-03T07:59:56.985Z,1.53
2018-10-03T08:02:25.311Z,1.77
2018-10-03T08:04:53.584Z,2.07
2018-10-03T08:07:21.935Z,2.10
2018-10-03T08:09:50.257Z,1.40
2018-10-03T08:12:18.480Z,1.37
2018-10-03T08:14:46.932Z,1.40
2018-10-03T08:17:15.215Z,1.80
2018-10-03T08:19:43.515Z,1.80
2018-10-03T08:22:11.764Z,1.33
2018-10-03T08:24:40.098Z,1.30
2018-10-03T08:27:08.337Z,1.40
2018-10-03T08:29:36.644Z,1.50
2018-10-03T08:32:04.961Z,1.57
2018-10-03T08:34:33.273Z,1.67
2018-10-03T08:37:01.589Z,1.50
2018-10-03T08:39:29.860Z,1.80
2018-10-03T08:41:58.159Z,1.60
2018-10-03T08:44:26.461Z,1.53
2018-10-03T08:46:56.375Z,1.50
2018-10-03T08:49:24.734Z,1.30
2018-10-03T08:51:53.038Z,1.60
2018-10-03T08:54:21.298Z,1.20
2018-10-03T08:56:49.563Z,1.47
2018-10-03T08:59:17.826Z,1.30
2018-10-03T09:01:46.100Z,1.50
2018-10-03T09:04:14.373Z,1.40
2018-10-03T09:06:42.652Z,1.40
2018-10-03T09:09:11.373Z,1.63
2018-10-03T09:11:39.829Z,1.20
2018-10-03T09:14:08.337Z,1.60
2018-10-03T09:16:36.605Z,1.70
2018-10-03T09:19:04.909Z,1.60
2018-10-03T09:21:33.277Z,1.70
2018-10-03T09:24:01.450Z,1.43
2018-10-03T09:26:29.766Z,1.80
2018-10-03T09:28:58.084Z,1.80
2018-10-03T09:31:26.366Z,1.30
2018-10-03T09:33:54.656Z,1.30
2018-10-03T09:36:22.906Z,1.53
2018-10-03T09:38:51.172Z,1.87
2018-10-03T09:41:19.464Z,2.17
2018-10-03T09:43:47.730Z,1.60
2018-10-03T09:46:16.901Z,2.40
2018-10-03T09:48:45.301Z,1.80
2018-10-03T09:51:13.596Z,1.23
2018-10-03T09:53:41.845Z,1.97
2018-10-03T09:56:10.115Z,1.60
2018-10-03T09:58:38.402Z,1.50
2018-10-03T10:01:11.993Z,2.10
2018-10-03T10:03:40.274Z,1.40
2018-10-03T10:06:08.523Z,1.73
2018-10-03T10:08:36.824Z,2.00
2018-10-03T10:11:05.209Z,2.30
2018-10-03T10:13:33.353Z,2.37
2018-10-03T10:16:01.678Z,2.00
2018-10-03T10:18:29.920Z,2.17
2018-10-03T10:20:58.329Z,1.90
2018-10-03T10:23:26.520Z,1.30
2018-10-03T10:25:54.789Z,2.10
2018-10-03T10:28:24.104Z,2.07
2018-10-03T10:30:52.374Z,1.70
2018-10-03T10:33:20.662Z,1.73
2018-10-03T10:35:48.940Z,2.43
2018-10-03T10:38:17.220Z,1.50
2018-10-03T10:40:45.811Z,2.23
2018-10-03T10:43:14.212Z,1.73
2018-10-03T10:45:42.443Z,1.70
2018-10-03T10:48:10.908Z,1.80
2018-10-03T10:50:39.235Z,2.23
2018-10-03T10:53:07.758Z,1.57
2018-10-03T10:55:36.037Z,3.47
2018-10-03T10:58:04.318Z,2.37
2018-10-03T11:00:32.606Z,1.70
2018-10-03T11:03:00.865Z,3.10
2018-10-03T11:05:29.141Z,2.27
2018-10-03T11:07:57.457Z,3.07
2018-10-03T11:10:25.716Z,3.10
2018-10-03T11:12:53.969Z,2.30
2018-10-03T11:15:22.255Z,2.50
2018-10-03T11:17:50.495Z,2.83
2018-10-03T11:20:18.761Z,2.20
2018-10-03T11:22:47.025Z,3.17
2018-10-03T11:25:15.313Z,1.70
2018-10-03T11:27:43.633Z,2.27
2018-10-03T11:30:11.924Z,1.60
2018-10-03T11:32:40.215Z,1.70
2018-10-03T11:35:08.476Z,1.70
2018-10-03T11:37:36.709Z,2.50
2018-10-03T11:40:05.353Z,1.70
2018-10-03T11:42:33.641Z,2.07
2018-10-03T11:45:01.930Z,2.30
2018-10-03T11:47:30.197Z,2.20
2018-10-03T11:49:58.485Z,2.30
2018-10-03T11:52:26.749Z,1.80
2018-10-03T11:54:55.004Z,1.80
2018-10-03T11:57:23.417Z,2.23
2018-10-03T11:59:51.653Z,2.77
2018-10-03T12:02:19.945Z,1.90
2018-10-03T12:04:48.206Z,3.70
2018-10-03T12:07:16.500Z,2.63
2018-10-03T12:09:44.761Z,1.90
2018-10-03T12:12:13.078Z,2.57
2018-10-03T12:14:41.338Z,2.63
2018-10-03T12:17:09.639Z,2.20
2018-10-03T12:19:37.961Z,2.10
2018-10-03T12:22:06.237Z,2.83
2018-10-03T12:24:34.518Z,2.07
2018-10-03T12:27:02.750Z,3.00
2018-10-03T12:29:31.041Z,2.87
2018-10-03T12:31:59.351Z,2.30
2018-10-03T12:34:27.644Z,2.63
2018-10-03T12:36:55.901Z,2.93
2018-10-03T12:39:24.171Z,2.20
2018-10-03T12:41:52.438Z,1.90
2018-10-03T12:44:20.693Z,3.07
2018-10-03T12:46:49.040Z,2.30
2018-10-03T12:49:17.314Z,1.90
2018-10-03T12:51:45.598Z,2.30
2018-10-03T12:54:13.840Z,2.17
2018-10-03T12:56:42.169Z,2.23
2018-10-03T12:59:10.460Z,2.33
2018-10-03T13:01:38.830Z,2.30
2018-10-03T13:04:07.154Z,1.97
2018-10-03T13:06:35.446Z,2.50
2018-10-03T13:09:05.294Z,2.23
2018-10-03T13:11:33.555Z,2.10
2018-10-03T13:14:01.835Z,1.90
2018-10-03T13:16:30.124Z,2.10
2018-10-03T13:18:58.581Z,2.73
2018-10-03T13:21:26.853Z,2.00
2018-10-03T13:23:55.188Z,2.10
2018-10-03T13:26:23.429Z,2.37
2018-10-03T13:28:51.714Z,2.07
2018-10-03T13:31:19.990Z,2.27
2018-10-03T13:33:48.280Z,2.23
2018-10-03T13:36:16.636Z,2.47
2018-10-03T13:38:44.929Z,2.17
2018-10-03T13:41:13.275Z,2.50
2018-10-03T13:43:41.562Z,2.40
2018-10-03T13:46:09.848Z,1.67
2018-10-03T13:48:38.119Z,2.60
2018-10-03T13:51:06.437Z,2.60
2018-10-03T13:53:34.776Z,2.10
2018-10-03T13:56:03.061Z,2.13
2018-10-03T13:58:31.351Z,2.80
2018-10-03T14:00:59.633Z,2.73
2018-10-03T14:03:27.872Z,2.03
2018-10-03T14:05:56.191Z,2.73
2018-10-03T14:08:24.472Z,2.10
2018-10-03T14:10:52.754Z,2.27
2018-10-03T14:13:21.220Z,2.20
2018-10-03T14:15:49.506Z,2.90
2018-10-03T14:18:17.994Z,2.40
2018-10-03T14:20:46.601Z,3.03
2018-10-03T14:23:15.165Z,2.30
2018-10-03T14:25:43.429Z,3.10
2018-10-03T14:28:11.856Z,3.50
2018-10-03T14:30:40.162Z,3.23
2018-10-03T14:33:08.534Z,2.70
2018-10-03T14:35:36.804Z,2.93
2018-10-03T14:38:05.057Z,3.00
2018-10-03T14:40:33.325Z,2.40
2018-10-03T14:43:01.597Z,2.40
2018-10-03T14:45:29.903Z,2.90
2018-10-03T14:47:58.161Z,2.77
2018-10-03T14:50:26.473Z,2.50
2018-10-03T14:52:54.785Z,2.70
2018-10-03T14:55:23.085Z,2.53
2018-10-03T14:57:51.364Z,2.27
2018-10-03T15:00:19.733Z,2.23
2018-10-03T15:02:47.999Z,2.60
2018-10-03T15:05:16.253Z,2.50
2018-10-03T15:07:44.526Z,2.30
2018-10-03T15:10:12.921Z,2.33
2018-10-03T15:12:41.289Z,2.40
2018-10-03T15:15:09.539Z,2.50
2018-10-03T15:17:37.825Z,2.33
2018-10-03T15:20:06.527Z,2.27
2018-10-03T15:22:34.793Z,2.47
2018-10-03T15:25:03.069Z,2.40
2018-10-03T15:27:31.373Z,2.40
2018-10-03T15:29:59.703Z,2.40
2018-10-03T15:32:27.932Z,2.77
2018-10-03T15:34:56.216Z,2.30
2018-10-03T15:37:24.489Z,2.10
2018-10-03T15:39:52.784Z,2.37
2018-10-03T15:42:21.069Z,2.33
2018-10-03T15:44:49.601Z,2.30
2018-10-03T15:47:18.060Z,2.30
2018-10-03T15:49:46.345Z,3.00
2018-10-03T15:52:14.618Z,2.40
2018-10-03T15:54:42.895Z,2.40
2018-10-03T15:57:11.170Z,2.87
2018-10-03T15:59:39.481Z,2.20
2018-10-03T16:02:07.802Z,2.90
2018-10-03T16:04:36.038Z,2.60
2018-10-03T16:07:04.340Z,2.80
2018-10-03T16:09:32.646Z,2.70
2018-10-03T16:12:00.866Z,2.50
2018-10-03T16:14:29.141Z,2.20
2018-10-03T16:16:57.487Z,3.13
2018-10-03T16:19:25.741Z,2.30
2018-10-03T16:21:54.031Z,2.63
2018-10-03T16:24:22.366Z,3.40
2018-10-03T16:26:50.716Z,3.43
2018-10-03T16:29:18.922Z,2.20
2018-10-03T16:31:47.214Z,2.20
2018-10-03T16:34:16.122Z,3.20
2018-10-03T16:36:44.412Z,2.10
2018-10-03T16:39:12.773Z,3.17
2018-10-03T16:41:40.976Z,3.60
2018-10-03T16:44:09.389Z,3.00
2018-10-03T16:46:37.644Z,2.03
2018-10-03T16:49:05.945Z,2.13
2018-10-03T16:51:34.297Z,2.23
2018-10-03T16:54:02.541Z,2.10
2018-10-03T16:56:30.821Z,2.50
2018-10-03T16:58:59.081Z,2.40
2018-10-03T17:01:27.353Z,2.33
2018-10-03T17:03:55.608Z,2.20
2018-10-03T17:06:23.881Z,2.60
2018-10-03T17:08:52.155Z,2.20
2018-10-03T17:11:20.418Z,2.23
2018-10-03T17:14:01.569Z,2.70
2018-10-03T17:16:29.928Z,3.10
2018-10-03T17:18:58.213Z,2.83
2018-10-03T17:21:26.465Z,3.10
2018-10-03T17:23:54.744Z,2.60
2018-10-03T17:26:23.009Z,2.80
2018-10-03T17:28:51.287Z,2.60
2018-10-03T17:31:20.014Z,2.73
2018-10-03T17:33:48.274Z,2.40
2018-10-03T17:36:16.553Z,2.60
2018-10-03T17:38:44.804Z,2.93
2018-10-03T17:41:13.102Z,2.33
2018-10-03T17:43:41.365Z,2.50
2018-10-03T17:46:09.666Z,2.70
2018-10-03T17:48:37.960Z,2.50
2018-10-03T17:51:06.388Z,2.60
2018-10-03T17:53:34.724Z,2.70
2018-10-03T17:56:03.170Z,2.50
2018-10-03T17:58:31.433Z,2.43
2018-10-03T18:00:59.749Z,2.13
2018-10-03T18:03:28.017Z,2.40
2018-10-03T18:05:56.330Z,2.70
2018-10-03T18:08:24.762Z,2.60
2018-10-03T18:10:53.033Z,2.37
2018-10-03T18:13:21.326Z,2.47
2018-10-03T18:15:50.064Z,2.60
2018-10-03T18:18:19.237Z,2.40
2018-10-03T18:20:48.028Z,2.70
2018-10-03T18:23:16.340Z,2.77
2018-10-03T18:25:44.688Z,2.60
2018-10-03T18:28:14.229Z,2.77
2018-10-03T18:30:42.496Z,2.33
2018-10-03T18:33:10.755Z,2.17
2018-10-03T18:35:39.069Z,2.13
2018-10-03T18:38:07.355Z,2.37
2018-10-03T18:40:35.686Z,2.70
2018-10-03T18:43:03.938Z,2.43
2018-10-03T18:45:32.227Z,2.50
2018-10-03T18:48:00.473Z,2.90
2018-10-03T18:50:28.737Z,2.53
2018-10-03T18:52:57.037Z,2.40
2018-10-03T18:55:25.334Z,2.70
2018-10-03T18:57:53.641Z,2.60
2018-10-03T19:00:21.931Z,2.90
2018-10-03T19:02:50.196Z,2.50
2018-10-03T19:05:18.460Z,2.50
2018-10-03T19:07:46.726Z,2.70
2018-10-03T19:10:15.025Z,2.47
2018-10-03T19:12:43.304Z,3.00
2018-10-03T19:15:11.555Z,2.73
2018-10-03T19:17:39.829Z,2.40
2018-10-03T19:20:08.167Z,2.57
2018-10-03T19:22:36.416Z,2.80
2018-10-03T19:25:04.853Z,2.80
2018-10-03T19:27:33.247Z,2.80
2018-10-03T19:30:01.503Z,3.57
2018-10-03T19:32:29.762Z,3.07
2018-10-03T19:34:58.161Z,3.13
2018-10-03T19:37:26.398Z,3.47
2018-10-03T19:39:54.859Z,3.20
2018-10-03T19:42:23.152Z,3.47
2018-10-03T19:44:51.697Z,2.60
2018-10-03T19:47:21.018Z,3.23
2018-10-03T19:49:49.273Z,3.30
2018-10-03T19:52:17.573Z,3.43
2018-10-03T19:54:45.834Z,3.40
2018-10-03T19:57:14.134Z,3.23
2018-10-03T19:59:42.426Z,3.47
2018-10-03T20:02:10.677Z,3.50
2018-10-03T20:04:38.953Z,3.33
2018-10-03T20:07:07.245Z,2.80
2018-10-03T20:09:35.497Z,3.23
2018-10-03T20:12:03.795Z,3.13
2018-10-03T20:14:32.086Z,2.83
2018-10-03T20:17:00.341Z,3.07
2018-10-03T20:19:28.593Z,3.60
2018-10-03T20:21:57.541Z,3.30
2018-10-03T20:24:26.728Z,3.20
2018-10-03T20:26:54.993Z,3.50
2018-10-03T20:29:23.266Z,3.17
2018-10-03T20:31:51.532Z,3.00
2018-10-03T20:34:19.946Z,3.27
2018-10-03T20:36:48.197Z,3.30
2018-10-03T20:39:16.686Z,4.03
2018-10-03T20:41:45.030Z,3.67
2018-10-03T20:44:13.240Z,3.73
2018-10-03T20:46:41.550Z,3.47
2018-10-03T20:49:09.809Z,3.17
2018-10-03T20:51:38.071Z,3.80
2018-10-03T20:54:06.415Z,3.73
2018-10-03T20:56:34.760Z,3.83
2018-10-03T20:59:03.037Z,3.63
2018-10-03T21:01:31.294Z,3.50
2018-10-03T21:04:00.117Z,3.73
2018-10-03T21:06:28.381Z,3.90
2018-10-03T21:08:56.625Z,3.30
2018-10-03T21:11:24.893Z,3.40
2018-10-03T21:13:53.188Z,3.20
2018-10-03T21:16:21.455Z,3.37
2018-10-03T21:18:49.717Z,3.60
2018-10-03T21:21:18.001Z,3.50
2018-10-03T21:23:46.268Z,3.33
2018-10-03T21:26:14.654Z,3.03
2018-10-03T21:28:42.933Z,3.90
2018-10-03T21:31:11.215Z,3.33
2018-10-03T21:33:39.473Z,3.40
2018-10-03T21:36:07.876Z,3.43
2018-10-03T21:38:36.156Z,3.40
2018-10-03T21:41:04.469Z,3.40
2018-10-03T21:43:34.168Z,3.27
2018-10-03T21:46:02.381Z,3.30
2018-10-03T21:48:30.648Z,3.90
2018-10-03T21:50:58.893Z,3.13
2018-10-03T21:53:27.154Z,3.73
2018-10-03T21:55:55.413Z,3.53
2018-10-03T21:58:23.676Z,3.83
2018-10-03T22:00:53.868Z,3.43
2018-10-03T22:03:22.681Z,3.60
2018-10-03T22:05:50.911Z,3.70
2018-10-03T22:08:19.188Z,3.53
2018-10-03T22:10:47.735Z,3.50
2018-10-03T22:13:16.026Z,3.33
2018-10-03T22:15:46.524Z,3.30
2018-10-03T22:18:14.888Z,3.40
2018-10-03T22:20:43.180Z,3.33
2018-10-03T22:23:11.566Z,2.87
2018-10-03T22:25:39.752Z,3.50
2018-10-03T22:28:08.025Z,3.10
2018-10-03T22:30:36.308Z,3.30
2018-10-03T22:33:04.589Z,3.27
2018-10-03T22:35:32.865Z,3.37
2018-10-03T22:38:01.141Z,3.63
2018-10-03T22:40:29.422Z,3.10
2018-10-03T22:42:57.682Z,3.30
2018-10-03T22:45:25.948Z,3.10
2018-10-03T22:47:54.224Z,2.83
2018-10-03T22:50:22.541Z,3.10
2018-10-03T22:52:50.787Z,2.63
2018-10-03T22:55:19.060Z,3.27
2018-10-03T22:57:47.325Z,2.93
2018-10-03T23:00:15.605Z,3.13
2018-10-03T23:02:43.881Z,3.00
2018-10-03T23:05:12.166Z,2.90
2018-10-03T23:07:40.433Z,2.80
2018-10-03T23:10:09.033Z,3.43
2018-10-03T23:12:37.283Z,3.00
2018-10-03T23:15:05.549Z,3.40
2018-10-03T23:17:33.790Z,3.13
2018-10-03T23:20:02.048Z,2.93
2018-10-03T23:22:30.293Z,3.17
2018-10-03T23:24:58.566Z,2.93
2018-10-03T23:27:27.853Z,2.93
2018-10-03T23:29:56.144Z,2.90
2018-10-03T23:32:24.417Z,3.00
2018-10-03T23:34:52.681Z,3.17
2018-10-03T23:37:20.974Z,3.00
2018-10-03T23:39:49.230Z,3.00
2018-10-03T23:42:17.501Z,2.93
2018-10-03T23:44:45.778Z,2.83
2018-10-03T23:47:14.021Z,2.77
2018-10-03T23:49:42.283Z,2.93
2018-10-03T23:52:10.557Z,3.10
2018-10-03T23:54:38.845Z,3.10
2018-10-03T23:57:07.117Z,2.67
2018-10-03T23:59:35.378Z,2.93
